sensor_id;sensor_type;location;lat;lon;timestamp;P1;durP1;ratioP1;P2;durP2;ratioP2
81223;SDS011;70698;44.402;18.522;2024-03-22T00:00:41;112.43;;;39.28;;
81223;SDS011;70698;44.402;18.522;2024-03-22T00:03:07;117.80;;;40.83;;
81223;SDS011;70698;44.402;18.522;2024-03-22T00:05:32;117.38;;;39.47;;
81223;SDS011;70698;44.402;18.522;2024-03-22T00:07:58;109.07;;;37.75;;
81223;SDS011;70698;44.402;18.522;2024-03-22T00:10:24;97.35;;;35.78;;
81223;SDS011;70698;44.402;18.522;2024-03-22T00:12:50;94.68;;;34.60;;
81223;SDS011;70698;44.402;18.522;2024-03-22T00:15:15;107.18;;;39.63;;
81223;SDS011;70698;44.402;18.522;2024-03-22T00:17:42;126.70;;;46.38;;
81223;SDS011;70698;44.402;18.522;2024-03-22T00:20:08;119.70;;;44.95;;
81223;SDS011;70698;44.402;18.522;2024-03-22T00:22:34;114.35;;;42.17;;
81223;SDS011;70698;44.402;18.522;2024-03-22T00:25:00;93.57;;;36.25;;
81223;SDS011;70698;44.402;18.522;2024-03-22T00:27:26;71.18;;;29.52;;
81223;SDS011;70698;44.402;18.522;2024-03-22T00:29:51;65.70;;;23.15;;
81223;SDS011;70698;44.402;18.522;2024-03-22T00:32:17;75.38;;;29.50;;
81223;SDS011;70698;44.402;18.522;2024-03-22T00:34:43;38.17;;;16.10;;
81223;SDS011;70698;44.402;18.522;2024-03-22T00:37:09;98.97;;;36.83;;
81223;SDS011;70698;44.402;18.522;2024-03-22T00:39:34;33.97;;;15.38;;
81223;SDS011;70698;44.402;18.522;2024-03-22T00:42:01;25.67;;;11.80;;
81223;SDS011;70698;44.402;18.522;2024-03-22T00:44:26;20.38;;;10.32;;
81223;SDS011;70698;44.402;18.522;2024-03-22T00:46:52;30.63;;;12.40;;
81223;SDS011;70698;44.402;18.522;2024-03-22T00:49:18;34.97;;;15.30;;
81223;SDS011;70698;44.402;18.522;2024-03-22T00:51:43;52.15;;;23.17;;
81223;SDS011;70698;44.402;18.522;2024-03-22T00:54:10;53.78;;;23.67;;
81223;SDS011;70698;44.402;18.522;2024-03-22T00:56:35;45.60;;;19.50;;
81223;SDS011;70698;44.402;18.522;2024-03-22T00:59:01;62.17;;;26.20;;
81223;SDS011;70698;44.402;18.522;2024-03-22T01:01:27;71.70;;;30.30;;
81223;SDS011;70698;44.402;18.522;2024-03-22T01:03:52;41.63;;;19.67;;
81223;SDS011;70698;44.402;18.522;2024-03-22T01:06:18;27.77;;;12.30;;
81223;SDS011;70698;44.402;18.522;2024-03-22T01:08:48;29.67;;;12.55;;
81223;SDS011;70698;44.402;18.522;2024-03-22T01:11:14;65.93;;;27.58;;
81223;SDS011;70698;44.402;18.522;2024-03-22T01:13:40;56.10;;;25.25;;
81223;SDS011;70698;44.402;18.522;2024-03-22T01:16:06;51.42;;;22.20;;
81223;SDS011;70698;44.402;18.522;2024-03-22T01:18:35;81.05;;;31.88;;
81223;SDS011;70698;44.402;18.522;2024-03-22T01:21:01;83.20;;;35.08;;
81223;SDS011;70698;44.402;18.522;2024-03-22T01:23:27;97.78;;;37.38;;
81223;SDS011;70698;44.402;18.522;2024-03-22T01:25:53;137.57;;;49.67;;
81223;SDS011;70698;44.402;18.522;2024-03-22T01:28:19;144.43;;;49.05;;
81223;SDS011;70698;44.402;18.522;2024-03-22T01:30:44;68.20;;;31.48;;
81223;SDS011;70698;44.402;18.522;2024-03-22T01:33:10;55.45;;;25.25;;
81223;SDS011;70698;44.402;18.522;2024-03-22T01:35:35;63.00;;;26.58;;
81223;SDS011;70698;44.402;18.522;2024-03-22T01:38:01;66.65;;;28.88;;
81223;SDS011;70698;44.402;18.522;2024-03-22T01:40:27;74.63;;;31.92;;
81223;SDS011;70698;44.402;18.522;2024-03-22T01:42:56;79.43;;;31.92;;
81223;SDS011;70698;44.402;18.522;2024-03-22T01:45:21;67.35;;;28.15;;
81223;SDS011;70698;44.402;18.522;2024-03-22T01:47:50;44.15;;;20.40;;
81223;SDS011;70698;44.402;18.522;2024-03-22T01:50:17;48.83;;;20.60;;
81223;SDS011;70698;44.402;18.522;2024-03-22T01:52:43;61.08;;;25.15;;
81223;SDS011;70698;44.402;18.522;2024-03-22T01:55:09;43.97;;;20.80;;
81223;SDS011;70698;44.402;18.522;2024-03-22T01:57:34;45.15;;;20.75;;
81223;SDS011;70698;44.402;18.522;2024-03-22T02:00:01;48.78;;;22.20;;
81223;SDS011;70698;44.402;18.522;2024-03-22T02:02:28;46.55;;;20.45;;
81223;SDS011;70698;44.402;18.522;2024-03-22T02:04:53;49.78;;;21.00;;
81223;SDS011;70698;44.402;18.522;2024-03-22T02:07:19;48.70;;;22.45;;
81223;SDS011;70698;44.402;18.522;2024-03-22T02:09:44;49.38;;;21.70;;
81223;SDS011;70698;44.402;18.522;2024-03-22T02:12:10;51.03;;;22.58;;
81223;SDS011;70698;44.402;18.522;2024-03-22T02:14:36;42.65;;;19.88;;
81223;SDS011;70698;44.402;18.522;2024-03-22T02:17:02;51.28;;;21.52;;
81223;SDS011;70698;44.402;18.522;2024-03-22T02:19:27;38.90;;;19.02;;
81223;SDS011;70698;44.402;18.522;2024-03-22T02:21:53;42.25;;;19.67;;
81223;SDS011;70698;44.402;18.522;2024-03-22T02:24:19;41.63;;;19.20;;
81223;SDS011;70698;44.402;18.522;2024-03-22T02:26:44;33.90;;;16.52;;
81223;SDS011;70698;44.402;18.522;2024-03-22T02:29:10;40.33;;;18.67;;
81223;SDS011;70698;44.402;18.522;2024-03-22T02:31:35;39.42;;;19.77;;
81223;SDS011;70698;44.402;18.522;2024-03-22T02:34:01;35.00;;;17.80;;
81223;SDS011;70698;44.402;18.522;2024-03-22T02:36:27;29.38;;;14.70;;
81223;SDS011;70698;44.402;18.522;2024-03-22T02:38:53;27.05;;;12.45;;
81223;SDS011;70698;44.402;18.522;2024-03-22T02:41:19;25.13;;;11.15;;
81223;SDS011;70698;44.402;18.522;2024-03-22T02:43:46;29.50;;;11.13;;
81223;SDS011;70698;44.402;18.522;2024-03-22T02:46:11;27.73;;;13.57;;
81223;SDS011;70698;44.402;18.522;2024-03-22T02:48:37;47.90;;;18.77;;
81223;SDS011;70698;44.402;18.522;2024-03-22T02:51:03;44.65;;;18.67;;
81223;SDS011;70698;44.402;18.522;2024-03-22T02:53:28;36.20;;;16.70;;
81223;SDS011;70698;44.402;18.522;2024-03-22T02:55:54;29.75;;;12.80;;
81223;SDS011;70698;44.402;18.522;2024-03-22T02:58:20;28.10;;;12.77;;
81223;SDS011;70698;44.402;18.522;2024-03-22T03:00:46;30.02;;;14.43;;
81223;SDS011;70698;44.402;18.522;2024-03-22T03:03:12;31.40;;;15.25;;
81223;SDS011;70698;44.402;18.522;2024-03-22T03:05:38;31.85;;;15.32;;
81223;SDS011;70698;44.402;18.522;2024-03-22T03:08:04;39.92;;;18.38;;
81223;SDS011;70698;44.402;18.522;2024-03-22T03:10:29;28.58;;;14.82;;
81223;SDS011;70698;44.402;18.522;2024-03-22T03:12:56;30.33;;;14.00;;
81223;SDS011;70698;44.402;18.522;2024-03-22T03:15:21;30.77;;;15.63;;
81223;SDS011;70698;44.402;18.522;2024-03-22T03:17:47;37.22;;;17.77;;
81223;SDS011;70698;44.402;18.522;2024-03-22T03:20:12;36.63;;;15.98;;
81223;SDS011;70698;44.402;18.522;2024-03-22T03:22:41;30.50;;;15.07;;
81223;SDS011;70698;44.402;18.522;2024-03-22T03:25:07;35.97;;;17.30;;
81223;SDS011;70698;44.402;18.522;2024-03-22T03:27:33;33.35;;;16.55;;
81223;SDS011;70698;44.402;18.522;2024-03-22T03:29:59;28.67;;;12.98;;
81223;SDS011;70698;44.402;18.522;2024-03-22T03:32:25;27.65;;;12.02;;
81223;SDS011;70698;44.402;18.522;2024-03-22T03:34:51;20.45;;;10.60;;
81223;SDS011;70698;44.402;18.522;2024-03-22T03:37:17;22.50;;;10.13;;
81223;SDS011;70698;44.402;18.522;2024-03-22T03:39:43;24.25;;;10.60;;
81223;SDS011;70698;44.402;18.522;2024-03-22T03:42:09;29.73;;;14.05;;
81223;SDS011;70698;44.402;18.522;2024-03-22T03:44:35;30.52;;;15.15;;
81223;SDS011;70698;44.402;18.522;2024-03-22T03:47:01;15.73;;;8.75;;
81223;SDS011;70698;44.402;18.522;2024-03-22T03:49:27;17.88;;;9.60;;
81223;SDS011;70698;44.402;18.522;2024-03-22T03:51:53;28.55;;;14.02;;
81223;SDS011;70698;44.402;18.522;2024-03-22T03:54:19;14.88;;;7.70;;
81223;SDS011;70698;44.402;18.522;2024-03-22T03:56:44;15.85;;;8.82;;
81223;SDS011;70698;44.402;18.522;2024-03-22T03:59:10;26.58;;;14.63;;
81223;SDS011;70698;44.402;18.522;2024-03-22T04:01:36;18.27;;;9.35;;
81223;SDS011;70698;44.402;18.522;2024-03-22T04:04:02;18.23;;;9.57;;
81223;SDS011;70698;44.402;18.522;2024-03-22T04:06:28;25.10;;;13.00;;
81223;SDS011;70698;44.402;18.522;2024-03-22T04:08:54;26.92;;;12.15;;
81223;SDS011;70698;44.402;18.522;2024-03-22T04:11:19;33.55;;;17.30;;
81223;SDS011;70698;44.402;18.522;2024-03-22T04:13:45;40.65;;;19.17;;
81223;SDS011;70698;44.402;18.522;2024-03-22T04:16:10;27.27;;;13.13;;
81223;SDS011;70698;44.402;18.522;2024-03-22T04:18:36;24.73;;;13.13;;
81223;SDS011;70698;44.402;18.522;2024-03-22T04:21:02;30.60;;;15.13;;
81223;SDS011;70698;44.402;18.522;2024-03-22T04:23:27;45.95;;;21.38;;
81223;SDS011;70698;44.402;18.522;2024-03-22T04:28:24;35.72;;;16.15;;
81223;SDS011;70698;44.402;18.522;2024-03-22T04:31:00;16.95;;;9.05;;
81223;SDS011;70698;44.402;18.522;2024-03-22T04:33:27;23.98;;;12.10;;
81223;SDS011;70698;44.402;18.522;2024-03-22T04:35:54;42.35;;;17.80;;
81223;SDS011;70698;44.402;18.522;2024-03-22T04:38:21;16.80;;;9.02;;
81223;SDS011;70698;44.402;18.522;2024-03-22T04:40:47;20.45;;;10.85;;
81223;SDS011;70698;44.402;18.522;2024-03-22T04:43:14;25.30;;;13.88;;
81223;SDS011;70698;44.402;18.522;2024-03-22T04:45:41;24.33;;;13.23;;
81223;SDS011;70698;44.402;18.522;2024-03-22T04:48:11;24.23;;;13.05;;
81223;SDS011;70698;44.402;18.522;2024-03-22T04:50:38;25.73;;;13.48;;
81223;SDS011;70698;44.402;18.522;2024-03-22T04:53:04;26.20;;;11.90;;
81223;SDS011;70698;44.402;18.522;2024-03-22T04:55:30;41.13;;;17.25;;
81223;SDS011;70698;44.402;18.522;2024-03-22T04:57:58;33.78;;;16.98;;
81223;SDS011;70698;44.402;18.522;2024-03-22T05:00:23;30.02;;;17.10;;
81223;SDS011;70698;44.402;18.522;2024-03-22T05:02:50;29.65;;;16.75;;
81223;SDS011;70698;44.402;18.522;2024-03-22T05:05:16;29.38;;;16.13;;
81223;SDS011;70698;44.402;18.522;2024-03-22T05:07:42;31.42;;;15.70;;
81223;SDS011;70698;44.402;18.522;2024-03-22T05:10:08;29.88;;;14.50;;
81223;SDS011;70698;44.402;18.522;2024-03-22T05:12:34;27.50;;;13.80;;
81223;SDS011;70698;44.402;18.522;2024-03-22T05:15:02;54.50;;;20.20;;
81223;SDS011;70698;44.402;18.522;2024-03-22T05:17:28;38.33;;;17.90;;
81223;SDS011;70698;44.402;18.522;2024-03-22T05:19:57;45.78;;;18.30;;
81223;SDS011;70698;44.402;18.522;2024-03-22T05:22:25;40.58;;;17.80;;
81223;SDS011;70698;44.402;18.522;2024-03-22T05:24:51;40.13;;;17.73;;
81223;SDS011;70698;44.402;18.522;2024-03-22T05:27:17;44.20;;;17.75;;
81223;SDS011;70698;44.402;18.522;2024-03-22T05:29:43;42.13;;;17.58;;
81223;SDS011;70698;44.402;18.522;2024-03-22T05:32:10;62.33;;;23.63;;
81223;SDS011;70698;44.402;18.522;2024-03-22T05:34:35;67.30;;;24.10;;
81223;SDS011;70698;44.402;18.522;2024-03-22T05:37:02;48.42;;;19.65;;
81223;SDS011;70698;44.402;18.522;2024-03-22T05:39:28;35.53;;;15.52;;
81223;SDS011;70698;44.402;18.522;2024-03-22T05:41:54;33.47;;;16.33;;
81223;SDS011;70698;44.402;18.522;2024-03-22T05:44:22;41.85;;;18.20;;
81223;SDS011;70698;44.402;18.522;2024-03-22T05:46:48;43.63;;;17.60;;
81223;SDS011;70698;44.402;18.522;2024-03-22T05:49:14;47.53;;;19.80;;
81223;SDS011;70698;44.402;18.522;2024-03-22T05:51:40;50.45;;;21.95;;
81223;SDS011;70698;44.402;18.522;2024-03-22T05:54:06;44.08;;;19.65;;
81223;SDS011;70698;44.402;18.522;2024-03-22T05:56:32;73.97;;;32.78;;
81223;SDS011;70698;44.402;18.522;2024-03-22T05:58:57;101.63;;;44.38;;
81223;SDS011;70698;44.402;18.522;2024-03-22T06:01:23;115.68;;;48.53;;
81223;SDS011;70698;44.402;18.522;2024-03-22T06:03:48;91.63;;;32.78;;
81223;SDS011;70698;44.402;18.522;2024-03-22T06:06:14;92.88;;;36.42;;
81223;SDS011;70698;44.402;18.522;2024-03-22T06:08:40;102.95;;;44.08;;
81223;SDS011;70698;44.402;18.522;2024-03-22T06:11:07;99.53;;;41.17;;
81223;SDS011;70698;44.402;18.522;2024-03-22T06:13:32;88.80;;;34.42;;
81223;SDS011;70698;44.402;18.522;2024-03-22T06:15:59;98.32;;;34.25;;
81223;SDS011;70698;44.402;18.522;2024-03-22T06:18:24;90.40;;;33.92;;
81223;SDS011;70698;44.402;18.522;2024-03-22T06:20:50;108.00;;;38.88;;
81223;SDS011;70698;44.402;18.522;2024-03-22T06:23:16;113.25;;;40.10;;
81223;SDS011;70698;44.402;18.522;2024-03-22T06:25:41;117.07;;;39.90;;
81223;SDS011;70698;44.402;18.522;2024-03-22T06:28:16;71.18;;;29.20;;
81223;SDS011;70698;44.402;18.522;2024-03-22T06:30:42;72.18;;;27.33;;
81223;SDS011;70698;44.402;18.522;2024-03-22T06:33:07;169.73;;;53.55;;
81223;SDS011;70698;44.402;18.522;2024-03-22T06:35:33;145.82;;;49.35;;
81223;SDS011;70698;44.402;18.522;2024-03-22T06:37:59;50.60;;;21.50;;
81223;SDS011;70698;44.402;18.522;2024-03-22T06:40:28;58.38;;;22.95;;
81223;SDS011;70698;44.402;18.522;2024-03-22T06:42:54;36.58;;;15.20;;
81223;SDS011;70698;44.402;18.522;2024-03-22T06:45:19;39.90;;;16.52;;
81223;SDS011;70698;44.402;18.522;2024-03-22T06:47:45;32.42;;;13.32;;
81223;SDS011;70698;44.402;18.522;2024-03-22T06:50:11;30.80;;;14.95;;
81223;SDS011;70698;44.402;18.522;2024-03-22T06:52:36;27.50;;;13.38;;
81223;SDS011;70698;44.402;18.522;2024-03-22T06:55:02;25.10;;;13.05;;
81223;SDS011;70698;44.402;18.522;2024-03-22T06:57:29;30.95;;;14.20;;
81223;SDS011;70698;44.402;18.522;2024-03-22T06:59:54;29.02;;;14.65;;
81223;SDS011;70698;44.402;18.522;2024-03-22T07:02:20;24.10;;;11.93;;
81223;SDS011;70698;44.402;18.522;2024-03-22T07:04:46;24.92;;;12.27;;
81223;SDS011;70698;44.402;18.522;2024-03-22T07:07:11;21.30;;;11.30;;
81223;SDS011;70698;44.402;18.522;2024-03-22T07:09:37;16.92;;;9.80;;
81223;SDS011;70698;44.402;18.522;2024-03-22T07:12:03;18.40;;;10.25;;
81223;SDS011;70698;44.402;18.522;2024-03-22T07:14:29;17.52;;;9.10;;
81223;SDS011;70698;44.402;18.522;2024-03-22T07:16:54;17.00;;;9.65;;
81223;SDS011;70698;44.402;18.522;2024-03-22T07:19:20;22.52;;;9.85;;
81223;SDS011;70698;44.402;18.522;2024-03-22T07:21:47;17.80;;;8.75;;
81223;SDS011;70698;44.402;18.522;2024-03-22T07:24:13;16.02;;;8.57;;
81223;SDS011;70698;44.402;18.522;2024-03-22T07:26:39;20.90;;;10.05;;
81223;SDS011;70698;44.402;18.522;2024-03-22T07:29:05;16.42;;;8.23;;
81223;SDS011;70698;44.402;18.522;2024-03-22T07:31:30;15.45;;;9.25;;
81223;SDS011;70698;44.402;18.522;2024-03-22T07:33:56;15.32;;;8.50;;
81223;SDS011;70698;44.402;18.522;2024-03-22T07:36:22;15.43;;;8.10;;
81223;SDS011;70698;44.402;18.522;2024-03-22T07:38:47;15.52;;;7.80;;
81223;SDS011;70698;44.402;18.522;2024-03-22T07:41:16;17.55;;;9.50;;
81223;SDS011;70698;44.402;18.522;2024-03-22T07:43:41;31.38;;;14.15;;
81223;SDS011;70698;44.402;18.522;2024-03-22T07:46:07;34.30;;;18.17;;
81223;SDS011;70698;44.402;18.522;2024-03-22T07:48:33;28.05;;;15.90;;
81223;SDS011;70698;44.402;18.522;2024-03-22T07:50:59;23.85;;;12.35;;
81223;SDS011;70698;44.402;18.522;2024-03-22T07:53:25;26.75;;;13.40;;
81223;SDS011;70698;44.402;18.522;2024-03-22T07:55:51;22.38;;;11.45;;
81223;SDS011;70698;44.402;18.522;2024-03-22T07:58:17;18.25;;;9.57;;
81223;SDS011;70698;44.402;18.522;2024-03-22T08:00:42;21.55;;;9.68;;
81223;SDS011;70698;44.402;18.522;2024-03-22T08:03:09;18.25;;;8.88;;
81223;SDS011;70698;44.402;18.522;2024-03-22T08:05:40;21.85;;;10.20;;
81223;SDS011;70698;44.402;18.522;2024-03-22T08:08:06;19.05;;;7.82;;
81223;SDS011;70698;44.402;18.522;2024-03-22T08:10:32;18.60;;;8.55;;
81223;SDS011;70698;44.402;18.522;2024-03-22T08:12:57;31.33;;;13.68;;
81223;SDS011;70698;44.402;18.522;2024-03-22T08:15:23;19.52;;;9.25;;
81223;SDS011;70698;44.402;18.522;2024-03-22T08:17:49;18.35;;;8.77;;
81223;SDS011;70698;44.402;18.522;2024-03-22T08:20:14;17.60;;;9.15;;
81223;SDS011;70698;44.402;18.522;2024-03-22T08:22:40;16.30;;;8.30;;
81223;SDS011;70698;44.402;18.522;2024-03-22T08:25:06;17.52;;;8.32;;
81223;SDS011;70698;44.402;18.522;2024-03-22T08:27:33;17.85;;;8.45;;
81223;SDS011;70698;44.402;18.522;2024-03-22T08:29:59;16.48;;;8.68;;
81223;SDS011;70698;44.402;18.522;2024-03-22T08:32:25;18.45;;;9.25;;
81223;SDS011;70698;44.402;18.522;2024-03-22T08:34:51;15.40;;;8.55;;
81223;SDS011;70698;44.402;18.522;2024-03-22T08:37:17;21.55;;;10.02;;
81223;SDS011;70698;44.402;18.522;2024-03-22T08:39:43;18.80;;;9.55;;
81223;SDS011;70698;44.402;18.522;2024-03-22T08:42:08;18.20;;;10.00;;
81223;SDS011;70698;44.402;18.522;2024-03-22T08:44:35;21.80;;;9.70;;
81223;SDS011;70698;44.402;18.522;2024-03-22T08:47:01;20.60;;;9.35;;
81223;SDS011;70698;44.402;18.522;2024-03-22T08:49:26;21.52;;;10.18;;
81223;SDS011;70698;44.402;18.522;2024-03-22T08:51:52;22.42;;;10.30;;
81223;SDS011;70698;44.402;18.522;2024-03-22T08:54:18;21.92;;;9.82;;
81223;SDS011;70698;44.402;18.522;2024-03-22T08:56:43;19.73;;;9.05;;
81223;SDS011;70698;44.402;18.522;2024-03-22T08:59:09;18.50;;;9.23;;
81223;SDS011;70698;44.402;18.522;2024-03-22T09:01:35;19.13;;;9.32;;
81223;SDS011;70698;44.402;18.522;2024-03-22T09:04:01;18.92;;;9.00;;
81223;SDS011;70698;44.402;18.522;2024-03-22T09:06:27;26.92;;;9.90;;
81223;SDS011;70698;44.402;18.522;2024-03-22T09:08:54;20.27;;;9.50;;
81223;SDS011;70698;44.402;18.522;2024-03-22T09:11:23;20.27;;;9.30;;
81223;SDS011;70698;44.402;18.522;2024-03-22T09:13:52;20.60;;;8.75;;
81223;SDS011;70698;44.402;18.522;2024-03-22T09:16:19;20.42;;;9.00;;
81223;SDS011;70698;44.402;18.522;2024-03-22T09:18:48;19.92;;;8.80;;
81223;SDS011;70698;44.402;18.522;2024-03-22T09:21:14;20.73;;;10.25;;
81223;SDS011;70698;44.402;18.522;2024-03-22T09:23:39;29.08;;;11.75;;
81223;SDS011;70698;44.402;18.522;2024-03-22T09:26:05;17.95;;;8.52;;
81223;SDS011;70698;44.402;18.522;2024-03-22T09:28:31;21.17;;;9.48;;
81223;SDS011;70698;44.402;18.522;2024-03-22T09:30:57;19.85;;;8.98;;
81223;SDS011;70698;44.402;18.522;2024-03-22T09:33:22;22.65;;;10.23;;
81223;SDS011;70698;44.402;18.522;2024-03-22T09:35:48;24.42;;;9.70;;
81223;SDS011;70698;44.402;18.522;2024-03-22T09:38:14;24.70;;;11.50;;
81223;SDS011;70698;44.402;18.522;2024-03-22T09:40:43;19.13;;;9.63;;
81223;SDS011;70698;44.402;18.522;2024-03-22T09:43:09;21.88;;;9.45;;
81223;SDS011;70698;44.402;18.522;2024-03-22T09:45:40;22.02;;;9.82;;
81223;SDS011;70698;44.402;18.522;2024-03-22T09:48:06;21.85;;;10.90;;
81223;SDS011;70698;44.402;18.522;2024-03-22T09:50:32;16.42;;;8.63;;
81223;SDS011;70698;44.402;18.522;2024-03-22T09:53:00;18.60;;;9.25;;
81223;SDS011;70698;44.402;18.522;2024-03-22T09:55:28;23.33;;;10.98;;
81223;SDS011;70698;44.402;18.522;2024-03-22T09:57:55;18.02;;;9.80;;
81223;SDS011;70698;44.402;18.522;2024-03-22T10:00:21;16.88;;;9.15;;
81223;SDS011;70698;44.402;18.522;2024-03-22T10:02:51;18.10;;;8.32;;
81223;SDS011;70698;44.402;18.522;2024-03-22T10:05:18;17.48;;;9.02;;
81223;SDS011;70698;44.402;18.522;2024-03-22T10:07:44;17.13;;;9.05;;
81223;SDS011;70698;44.402;18.522;2024-03-22T10:10:10;18.08;;;9.63;;
81223;SDS011;70698;44.402;18.522;2024-03-22T10:12:37;16.27;;;8.43;;
81223;SDS011;70698;44.402;18.522;2024-03-22T10:15:04;16.95;;;8.63;;
81223;SDS011;70698;44.402;18.522;2024-03-22T10:17:33;19.10;;;9.00;;
81223;SDS011;70698;44.402;18.522;2024-03-22T10:19:59;18.80;;;8.75;;
81223;SDS011;70698;44.402;18.522;2024-03-22T10:22:25;26.13;;;10.57;;
81223;SDS011;70698;44.402;18.522;2024-03-22T10:24:51;19.25;;;9.30;;
81223;SDS011;70698;44.402;18.522;2024-03-22T10:27:17;21.05;;;10.77;;
81223;SDS011;70698;44.402;18.522;2024-03-22T10:29:44;19.27;;;9.50;;
81223;SDS011;70698;44.402;18.522;2024-03-22T10:32:09;17.23;;;8.57;;
81223;SDS011;70698;44.402;18.522;2024-03-22T10:34:35;17.05;;;9.13;;
81223;SDS011;70698;44.402;18.522;2024-03-22T10:37:01;17.08;;;9.57;;
81223;SDS011;70698;44.402;18.522;2024-03-22T10:39:29;20.90;;;8.65;;
81223;SDS011;70698;44.402;18.522;2024-03-22T10:41:56;17.40;;;8.70;;
81223;SDS011;70698;44.402;18.522;2024-03-22T10:44:21;16.70;;;8.38;;
81223;SDS011;70698;44.402;18.522;2024-03-22T10:46:49;20.52;;;9.52;;
81223;SDS011;70698;44.402;18.522;2024-03-22T10:49:18;17.35;;;9.30;;
81223;SDS011;70698;44.402;18.522;2024-03-22T10:51:54;13.52;;;7.47;;
81223;SDS011;70698;44.402;18.522;2024-03-22T10:54:32;12.88;;;7.43;;
81223;SDS011;70698;44.402;18.522;2024-03-22T10:59:34;14.55;;;8.02;;
81223;SDS011;70698;44.402;18.522;2024-03-22T11:02:03;17.45;;;8.25;;
81223;SDS011;70698;44.402;18.522;2024-03-22T11:04:32;14.48;;;7.75;;
81223;SDS011;70698;44.402;18.522;2024-03-22T11:06:58;18.88;;;9.18;;
81223;SDS011;70698;44.402;18.522;2024-03-22T11:09:25;14.85;;;8.52;;
81223;SDS011;70698;44.402;18.522;2024-03-22T11:11:51;14.65;;;7.97;;
81223;SDS011;70698;44.402;18.522;2024-03-22T11:14:17;15.77;;;9.40;;
81223;SDS011;70698;44.402;18.522;2024-03-22T11:16:43;16.63;;;8.63;;
81223;SDS011;70698;44.402;18.522;2024-03-22T11:19:10;17.42;;;8.07;;
81223;SDS011;70698;44.402;18.522;2024-03-22T11:21:37;19.27;;;8.43;;
81223;SDS011;70698;44.402;18.522;2024-03-22T11:24:03;14.48;;;8.27;;
81223;SDS011;70698;44.402;18.522;2024-03-22T11:28:56;14.68;;;8.10;;
81223;SDS011;70698;44.402;18.522;2024-03-22T11:31:22;18.17;;;8.65;;
81223;SDS011;70698;44.402;18.522;2024-03-22T11:33:55;15.50;;;9.02;;
81223;SDS011;70698;44.402;18.522;2024-03-22T11:36:22;15.57;;;8.80;;
81223;SDS011;70698;44.402;18.522;2024-03-22T11:38:48;16.13;;;9.18;;
81223;SDS011;70698;44.402;18.522;2024-03-22T11:41:23;16.40;;;8.90;;
81223;SDS011;70698;44.402;18.522;2024-03-22T11:43:53;19.15;;;10.02;;
81223;SDS011;70698;44.402;18.522;2024-03-22T11:46:20;17.17;;;9.27;;
81223;SDS011;70698;44.402;18.522;2024-03-22T11:48:52;17.23;;;9.30;;
81223;SDS011;70698;44.402;18.522;2024-03-22T11:51:19;19.38;;;9.38;;
81223;SDS011;70698;44.402;18.522;2024-03-22T11:53:48;16.30;;;8.55;;
81223;SDS011;70698;44.402;18.522;2024-03-22T11:56:18;16.13;;;9.15;;
81223;SDS011;70698;44.402;18.522;2024-03-22T11:58:47;18.40;;;11.10;;
81223;SDS011;70698;44.402;18.522;2024-03-22T12:01:17;35.33;;;20.33;;
81223;SDS011;70698;44.402;18.522;2024-03-22T12:03:45;16.77;;;9.18;;
81223;SDS011;70698;44.402;18.522;2024-03-22T12:06:12;16.70;;;9.63;;
81223;SDS011;70698;44.402;18.522;2024-03-22T12:08:38;15.60;;;8.65;;
81223;SDS011;70698;44.402;18.522;2024-03-22T12:11:09;13.40;;;8.48;;
81223;SDS011;70698;44.402;18.522;2024-03-22T12:13:37;14.57;;;8.10;;
81223;SDS011;70698;44.402;18.522;2024-03-22T12:16:04;14.52;;;8.80;;
81223;SDS011;70698;44.402;18.522;2024-03-22T12:18:30;18.17;;;9.65;;
81223;SDS011;70698;44.402;18.522;2024-03-22T12:20:56;17.83;;;9.93;;
81223;SDS011;70698;44.402;18.522;2024-03-22T12:23:22;17.98;;;10.60;;
81223;SDS011;70698;44.402;18.522;2024-03-22T12:25:50;19.50;;;10.90;;
81223;SDS011;70698;44.402;18.522;2024-03-22T12:28:17;18.77;;;10.98;;
81223;SDS011;70698;44.402;18.522;2024-03-22T12:30:43;16.38;;;10.02;;
81223;SDS011;70698;44.402;18.522;2024-03-22T12:33:09;21.98;;;11.65;;
81223;SDS011;70698;44.402;18.522;2024-03-22T12:35:41;20.60;;;12.15;;
81223;SDS011;70698;44.402;18.522;2024-03-22T12:38:07;17.35;;;10.25;;
81223;SDS011;70698;44.402;18.522;2024-03-22T12:40:37;16.58;;;10.27;;
81223;SDS011;70698;44.402;18.522;2024-03-22T12:43:03;13.40;;;8.00;;
81223;SDS011;70698;44.402;18.522;2024-03-22T12:45:29;14.45;;;8.25;;
81223;SDS011;70698;44.402;18.522;2024-03-22T12:47:55;13.98;;;7.72;;
81223;SDS011;70698;44.402;18.522;2024-03-22T12:50:21;14.38;;;7.88;;
81223;SDS011;70698;44.402;18.522;2024-03-22T12:52:46;15.30;;;8.40;;
81223;SDS011;70698;44.402;18.522;2024-03-22T12:55:12;13.52;;;7.45;;
81223;SDS011;70698;44.402;18.522;2024-03-22T12:57:38;14.88;;;8.55;;
81223;SDS011;70698;44.402;18.522;2024-03-22T13:00:05;15.70;;;7.90;;
81223;SDS011;70698;44.402;18.522;2024-03-22T13:02:40;15.95;;;8.70;;
81223;SDS011;70698;44.402;18.522;2024-03-22T13:05:07;15.65;;;8.43;;
81223;SDS011;70698;44.402;18.522;2024-03-22T13:07:33;13.43;;;7.22;;
81223;SDS011;70698;44.402;18.522;2024-03-22T13:10:00;11.80;;;7.07;;
81223;SDS011;70698;44.402;18.522;2024-03-22T13:12:26;11.05;;;6.63;;
81223;SDS011;70698;44.402;18.522;2024-03-22T13:15:02;11.02;;;6.22;;
81223;SDS011;70698;44.402;18.522;2024-03-22T13:17:28;10.65;;;6.75;;
81223;SDS011;70698;44.402;18.522;2024-03-22T13:19:53;12.00;;;6.63;;
81223;SDS011;70698;44.402;18.522;2024-03-22T13:22:19;9.10;;;6.50;;
81223;SDS011;70698;44.402;18.522;2024-03-22T13:24:45;12.10;;;6.88;;
81223;SDS011;70698;44.402;18.522;2024-03-22T13:27:13;10.88;;;6.38;;
81223;SDS011;70698;44.402;18.522;2024-03-22T13:29:39;11.27;;;7.70;;
81223;SDS011;70698;44.402;18.522;2024-03-22T13:32:05;8.18;;;5.65;;
81223;SDS011;70698;44.402;18.522;2024-03-22T13:34:35;8.77;;;5.60;;
81223;SDS011;70698;44.402;18.522;2024-03-22T13:37:01;11.23;;;6.70;;
81223;SDS011;70698;44.402;18.522;2024-03-22T13:39:27;14.13;;;7.55;;
81223;SDS011;70698;44.402;18.522;2024-03-22T13:41:56;13.25;;;7.40;;
81223;SDS011;70698;44.402;18.522;2024-03-22T13:44:22;12.63;;;6.90;;
81223;SDS011;70698;44.402;18.522;2024-03-22T13:46:49;11.40;;;7.15;;
81223;SDS011;70698;44.402;18.522;2024-03-22T13:49:16;12.95;;;8.10;;
81223;SDS011;70698;44.402;18.522;2024-03-22T13:51:43;12.75;;;7.20;;
81223;SDS011;70698;44.402;18.522;2024-03-22T13:54:09;11.27;;;7.03;;
81223;SDS011;70698;44.402;18.522;2024-03-22T13:56:36;17.83;;;9.30;;
81223;SDS011;70698;44.402;18.522;2024-03-22T13:59:03;11.23;;;7.35;;
81223;SDS011;70698;44.402;18.522;2024-03-22T14:01:36;12.30;;;7.32;;
81223;SDS011;70698;44.402;18.522;2024-03-22T14:04:03;14.48;;;7.93;;
81223;SDS011;70698;44.402;18.522;2024-03-22T14:06:32;15.40;;;9.00;;
81223;SDS011;70698;44.402;18.522;2024-03-22T14:08:58;15.60;;;9.68;;
81223;SDS011;70698;44.402;18.522;2024-03-22T14:11:35;19.67;;;10.43;;
81223;SDS011;70698;44.402;18.522;2024-03-22T14:14:01;13.32;;;8.68;;
81223;SDS011;70698;44.402;18.522;2024-03-22T14:16:27;13.32;;;8.38;;